sensor_id;sensor_type;location;lat;lon;timestamp;P1;durP1;ratioP1;P2;durP2;ratioP2
70929;SDS011;58588;48.102;19.682;2023-07-08T00:01:44;8.13;;;2.65;;
70929;SDS011;58588;48.102;19.682;2023-07-08T00:04:46;7.53;;;2.60;;
70929;SDS011;58588;48.102;19.682;2023-07-08T00:07:49;8.13;;;2.70;;
70929;SDS011;58588;48.102;19.682;2023-07-08T00:10:51;9.38;;;3.08;;
70929;SDS011;58588;48.102;19.682;2023-07-08T00:13:53;9.40;;;2.75;;
70929;SDS011;58588;48.102;19.682;2023-07-08T00:16:55;10.18;;;3.40;;
70929;SDS011;58588;48.102;19.682;2023-07-08T00:19:57;6.50;;;2.90;;
70929;SDS011;58588;48.102;19.682;2023-07-08T00:23:01;8.87;;;2.97;;
70929;SDS011;58588;48.102;19.682;2023-07-08T00:26:04;8.32;;;2.83;;
70929;SDS011;58588;48.102;19.682;2023-07-08T00:29:12;6.72;;;2.75;;
70929;SDS011;58588;48.102;19.682;2023-07-08T00:32:18;7.88;;;2.70;;
70929;SDS011;58588;48.102;19.682;2023-07-08T00:35:20;8.53;;;2.20;;
70929;SDS011;58588;48.102;19.682;2023-07-08T00:38:25;7.37;;;2.60;;
70929;SDS011;58588;48.102;19.682;2023-07-08T00:41:30;6.88;;;2.85;;
70929;SDS011;58588;48.102;19.682;2023-07-08T00:44:34;6.35;;;2.75;;
70929;SDS011;58588;48.102;19.682;2023-07-08T00:47:38;6.82;;;2.90;;
70929;SDS011;58588;48.102;19.682;2023-07-08T00:50:40;7.57;;;3.00;;
70929;SDS011;58588;48.102;19.682;2023-07-08T00:53:44;6.83;;;2.70;;
70929;SDS011;58588;48.102;19.682;2023-07-08T00:56:46;7.13;;;2.65;;
70929;SDS011;58588;48.102;19.682;2023-07-08T00:59:52;6.60;;;2.75;;
70929;SDS011;58588;48.102;19.682;2023-07-08T01:02:57;9.93;;;2.58;;
70929;SDS011;58588;48.102;19.682;2023-07-08T01:05:59;7.70;;;2.70;;
70929;SDS011;58588;48.102;19.682;2023-07-08T01:09:03;6.93;;;2.80;;
70929;SDS011;58588;48.102;19.682;2023-07-08T01:12:07;9.48;;;2.83;;
70929;SDS011;58588;48.102;19.682;2023-07-08T01:15:13;5.95;;;2.50;;
70929;SDS011;58588;48.102;19.682;2023-07-08T01:18:16;7.00;;;2.63;;
70929;SDS011;58588;48.102;19.682;2023-07-08T01:21:29;6.80;;;2.90;;
70929;SDS011;58588;48.102;19.682;2023-07-08T01:24:35;8.10;;;2.93;;
70929;SDS011;58588;48.102;19.682;2023-07-08T01:27:39;6.40;;;2.65;;
70929;SDS011;58588;48.102;19.682;2023-07-08T01:30:44;8.25;;;2.85;;
70929;SDS011;58588;48.102;19.682;2023-07-08T01:33:47;7.18;;;2.60;;
70929;SDS011;58588;48.102;19.682;2023-07-08T01:36:52;8.07;;;3.10;;
70929;SDS011;58588;48.102;19.682;2023-07-08T01:39:57;7.17;;;2.90;;
70929;SDS011;58588;48.102;19.682;2023-07-08T01:42:59;6.68;;;2.85;;
70929;SDS011;58588;48.102;19.682;2023-07-08T01:46:02;6.80;;;2.67;;
70929;SDS011;58588;48.102;19.682;2023-07-08T01:49:05;6.45;;;2.60;;
70929;SDS011;58588;48.102;19.682;2023-07-08T01:52:08;9.47;;;2.83;;
70929;SDS011;58588;48.102;19.682;2023-07-08T01:55:13;6.00;;;2.80;;
70929;SDS011;58588;48.102;19.682;2023-07-08T01:58:15;6.65;;;2.67;;
70929;SDS011;58588;48.102;19.682;2023-07-08T02:01:17;7.18;;;2.50;;
70929;SDS011;58588;48.102;19.682;2023-07-08T02:04:19;6.72;;;2.70;;
70929;SDS011;58588;48.102;19.682;2023-07-08T02:07:21;8.03;;;3.00;;
70929;SDS011;58588;48.102;19.682;2023-07-08T02:10:25;8.13;;;2.80;;
70929;SDS011;58588;48.102;19.682;2023-07-08T02:13:27;7.43;;;3.38;;
70929;SDS011;58588;48.102;19.682;2023-07-08T02:16:29;6.80;;;3.00;;
70929;SDS011;58588;48.102;19.682;2023-07-08T02:19:31;6.28;;;2.78;;
70929;SDS011;58588;48.102;19.682;2023-07-08T02:22:33;11.33;;;2.87;;
70929;SDS011;58588;48.102;19.682;2023-07-08T02:25:38;6.80;;;2.60;;
70929;SDS011;58588;48.102;19.682;2023-07-08T02:28:40;7.10;;;2.90;;
70929;SDS011;58588;48.102;19.682;2023-07-08T02:31:42;8.23;;;3.38;;
70929;SDS011;58588;48.102;19.682;2023-07-08T02:34:44;7.57;;;3.30;;
70929;SDS011;58588;48.102;19.682;2023-07-08T02:37:46;8.50;;;3.20;;
70929;SDS011;58588;48.102;19.682;2023-07-08T02:40:50;8.33;;;3.07;;
70929;SDS011;58588;48.102;19.682;2023-07-08T02:43:52;7.88;;;3.10;;
70929;SDS011;58588;48.102;19.682;2023-07-08T02:46:54;7.55;;;3.15;;
70929;SDS011;58588;48.102;19.682;2023-07-08T02:49:56;7.57;;;3.20;;
70929;SDS011;58588;48.102;19.682;2023-07-08T02:52:58;7.33;;;3.20;;
70929;SDS011;58588;48.102;19.682;2023-07-08T02:56:02;8.37;;;3.00;;
70929;SDS011;58588;48.102;19.682;2023-07-08T02:59:04;8.55;;;3.10;;
70929;SDS011;58588;48.102;19.682;2023-07-08T03:02:06;7.90;;;3.20;;
70929;SDS011;58588;48.102;19.682;2023-07-08T03:05:08;7.25;;;3.00;;
70929;SDS011;58588;48.102;19.682;2023-07-08T03:08:10;7.97;;;3.23;;
70929;SDS011;58588;48.102;19.682;2023-07-08T03:11:14;6.90;;;3.00;;
70929;SDS011;58588;48.102;19.682;2023-07-08T03:14:16;10.27;;;3.00;;
70929;SDS011;58588;48.102;19.682;2023-07-08T03:17:18;8.63;;;2.63;;
70929;SDS011;58588;48.102;19.682;2023-07-08T03:20:20;8.55;;;2.63;;
70929;SDS011;58588;48.102;19.682;2023-07-08T03:23:22;8.43;;;2.70;;
70929;SDS011;58588;48.102;19.682;2023-07-08T03:26:26;7.97;;;2.70;;
70929;SDS011;58588;48.102;19.682;2023-07-08T03:29:28;8.35;;;2.80;;
70929;SDS011;58588;48.102;19.682;2023-07-08T03:32:30;7.97;;;2.65;;
70929;SDS011;58588;48.102;19.682;2023-07-08T03:35:32;11.52;;;2.80;;
70929;SDS011;58588;48.102;19.682;2023-07-08T03:38:35;7.33;;;2.80;;
70929;SDS011;58588;48.102;19.682;2023-07-08T03:41:38;7.63;;;2.97;;
70929;SDS011;58588;48.102;19.682;2023-07-08T03:44:40;8.30;;;2.80;;
70929;SDS011;58588;48.102;19.682;2023-07-08T03:47:42;7.05;;;2.88;;
70929;SDS011;58588;48.102;19.682;2023-07-08T03:50:45;9.02;;;3.10;;
70929;SDS011;58588;48.102;19.682;2023-07-08T03:53:48;9.20;;;3.10;;
70929;SDS011;58588;48.102;19.682;2023-07-08T03:56:52;7.60;;;2.77;;
70929;SDS011;58588;48.102;19.682;2023-07-08T03:59:55;10.40;;;3.50;;
70929;SDS011;58588;48.102;19.682;2023-07-08T04:02:57;6.80;;;2.92;;
70929;SDS011;58588;48.102;19.682;2023-07-08T04:05:59;8.10;;;3.50;;
70929;SDS011;58588;48.102;19.682;2023-07-08T04:09:01;10.27;;;3.70;;
70929;SDS011;58588;48.102;19.682;2023-07-08T04:12:05;7.90;;;3.37;;
70929;SDS011;58588;48.102;19.682;2023-07-08T04:15:09;8.88;;;3.28;;
70929;SDS011;58588;48.102;19.682;2023-07-08T04:18:13;8.77;;;3.47;;
70929;SDS011;58588;48.102;19.682;2023-07-08T04:21:15;7.30;;;3.42;;
70929;SDS011;58588;48.102;19.682;2023-07-08T04:24:18;10.77;;;3.50;;
70929;SDS011;58588;48.102;19.682;2023-07-08T04:27:21;8.07;;;3.40;;
70929;SDS011;58588;48.102;19.682;2023-07-08T04:30:24;6.82;;;3.35;;
70929;SDS011;58588;48.102;19.682;2023-07-08T04:33:27;6.88;;;3.47;;
70929;SDS011;58588;48.102;19.682;2023-07-08T04:36:29;7.50;;;3.58;;
70929;SDS011;58588;48.102;19.682;2023-07-08T04:39:31;8.57;;;3.67;;
70929;SDS011;58588;48.102;19.682;2023-07-08T04:42:35;9.40;;;3.70;;
70929;SDS011;58588;48.102;19.682;2023-07-08T04:45:37;7.25;;;3.47;;
70929;SDS011;58588;48.102;19.682;2023-07-08T04:48:39;7.60;;;3.85;;
70929;SDS011;58588;48.102;19.682;2023-07-08T04:51:42;7.32;;;3.60;;
70929;SDS011;58588;48.102;19.682;2023-07-08T04:54:44;9.50;;;3.77;;
70929;SDS011;58588;48.102;19.682;2023-07-08T04:57:48;8.47;;;3.60;;
70929;SDS011;58588;48.102;19.682;2023-07-08T05:00:50;9.23;;;4.07;;
70929;SDS011;58588;48.102;19.682;2023-07-08T05:03:52;7.55;;;3.53;;
70929;SDS011;58588;48.102;19.682;2023-07-08T05:06:54;7.93;;;3.85;;
70929;SDS011;58588;48.102;19.682;2023-07-08T05:09:57;8.30;;;3.50;;
70929;SDS011;58588;48.102;19.682;2023-07-08T05:13:01;7.50;;;3.47;;
70929;SDS011;58588;48.102;19.682;2023-07-08T05:16:03;7.53;;;3.22;;
70929;SDS011;58588;48.102;19.682;2023-07-08T05:19:06;7.75;;;3.10;;
70929;SDS011;58588;48.102;19.682;2023-07-08T05:22:08;7.80;;;3.35;;
70929;SDS011;58588;48.102;19.682;2023-07-08T05:25:10;7.00;;;3.17;;
70929;SDS011;58588;48.102;19.682;2023-07-08T05:28:14;6.23;;;3.07;;
70929;SDS011;58588;48.102;19.682;2023-07-08T05:31:16;7.72;;;3.58;;
70929;SDS011;58588;48.102;19.682;2023-07-08T05:34:18;6.38;;;3.17;;
70929;SDS011;58588;48.102;19.682;2023-07-08T05:37:20;8.50;;;3.55;;
70929;SDS011;58588;48.102;19.682;2023-07-08T05:40:25;7.00;;;3.03;;
70929;SDS011;58588;48.102;19.682;2023-07-08T05:43:28;7.07;;;3.20;;
70929;SDS011;58588;48.102;19.682;2023-07-08T05:46:30;7.22;;;3.05;;
70929;SDS011;58588;48.102;19.682;2023-07-08T05:49:33;6.47;;;3.08;;
70929;SDS011;58588;48.102;19.682;2023-07-08T05:52:35;8.23;;;3.38;;
70929;SDS011;58588;48.102;19.682;2023-07-08T05:55:37;6.65;;;2.92;;
70929;SDS011;58588;48.102;19.682;2023-07-08T05:58:44;6.97;;;3.10;;
70929;SDS011;58588;48.102;19.682;2023-07-08T06:01:46;8.52;;;3.28;;
70929;SDS011;58588;48.102;19.682;2023-07-08T06:04:48;7.55;;;2.90;;
70929;SDS011;58588;48.102;19.682;2023-07-08T06:07:50;7.57;;;2.97;;
70929;SDS011;58588;48.102;19.682;2023-07-08T06:10:52;7.35;;;2.90;;
70929;SDS011;58588;48.102;19.682;2023-07-08T06:13:56;8.23;;;2.90;;
70929;SDS011;58588;48.102;19.682;2023-07-08T06:16:59;8.43;;;2.90;;
70929;SDS011;58588;48.102;19.682;2023-07-08T06:20:01;9.90;;;3.03;;
70929;SDS011;58588;48.102;19.682;2023-07-08T06:23:03;6.97;;;2.63;;
70929;SDS011;58588;48.102;19.682;2023-07-08T06:26:05;6.88;;;2.80;;
70929;SDS011;58588;48.102;19.682;2023-07-08T06:29:09;9.67;;;2.80;;
70929;SDS011;58588;48.102;19.682;2023-07-08T06:32:11;7.05;;;2.90;;
70929;SDS011;58588;48.102;19.682;2023-07-08T06:35:13;6.30;;;2.65;;
70929;SDS011;58588;48.102;19.682;2023-07-08T06:38:15;6.38;;;2.45;;
70929;SDS011;58588;48.102;19.682;2023-07-08T06:41:17;6.32;;;2.20;;
70929;SDS011;58588;48.102;19.682;2023-07-08T06:44:21;6.30;;;2.43;;
70929;SDS011;58588;48.102;19.682;2023-07-08T06:47:24;7.18;;;2.55;;
70929;SDS011;58588;48.102;19.682;2023-07-08T06:50:26;6.53;;;2.40;;
70929;SDS011;58588;48.102;19.682;2023-07-08T06:53:29;8.70;;;2.72;;
70929;SDS011;58588;48.102;19.682;2023-07-08T06:56:31;7.88;;;2.60;;
70929;SDS011;58588;48.102;19.682;2023-07-08T06:59:35;5.43;;;2.33;;
70929;SDS011;58588;48.102;19.682;2023-07-08T07:02:37;7.07;;;2.47;;
70929;SDS011;58588;48.102;19.682;2023-07-08T07:05:41;6.43;;;2.40;;
70929;SDS011;58588;48.102;19.682;2023-07-08T07:08:44;7.40;;;2.58;;
70929;SDS011;58588;48.102;19.682;2023-07-08T07:11:46;7.55;;;2.50;;
70929;SDS011;58588;48.102;19.682;2023-07-08T07:14:50;5.90;;;2.40;;
70929;SDS011;58588;48.102;19.682;2023-07-08T07:17:53;6.28;;;2.40;;
70929;SDS011;58588;48.102;19.682;2023-07-08T07:20:55;5.78;;;2.30;;
70929;SDS011;58588;48.102;19.682;2023-07-08T07:23:57;6.63;;;2.50;;
70929;SDS011;58588;48.102;19.682;2023-07-08T07:26:59;5.93;;;2.40;;
70929;SDS011;58588;48.102;19.682;2023-07-08T07:30:03;11.57;;;2.63;;
70929;SDS011;58588;48.102;19.682;2023-07-08T07:33:06;6.82;;;2.40;;
70929;SDS011;58588;48.102;19.682;2023-07-08T07:36:08;6.20;;;2.25;;
70929;SDS011;58588;48.102;19.682;2023-07-08T07:39:10;6.47;;;2.40;;
70929;SDS011;58588;48.102;19.682;2023-07-08T07:42:13;9.57;;;2.67;;
70929;SDS011;58588;48.102;19.682;2023-07-08T07:45:18;6.83;;;2.37;;
70929;SDS011;58588;48.102;19.682;2023-07-08T07:48:22;5.82;;;2.55;;
70929;SDS011;58588;48.102;19.682;2023-07-08T07:51:25;7.15;;;2.58;;
70929;SDS011;58588;48.102;19.682;2023-07-08T07:54:28;7.72;;;2.63;;
70929;SDS011;58588;48.102;19.682;2023-07-08T07:57:32;7.45;;;2.65;;
70929;SDS011;58588;48.102;19.682;2023-07-08T08:00:35;9.27;;;2.40;;
70929;SDS011;58588;48.102;19.682;2023-07-08T08:03:37;6.22;;;2.33;;
70929;SDS011;58588;48.102;19.682;2023-07-08T08:06:39;7.38;;;2.60;;
70929;SDS011;58588;48.102;19.682;2023-07-08T08:09:42;7.95;;;2.40;;
70929;SDS011;58588;48.102;19.682;2023-07-08T08:12:44;8.80;;;2.70;;
70929;SDS011;58588;48.102;19.682;2023-07-08T08:15:54;6.53;;;2.80;;
70929;SDS011;58588;48.102;19.682;2023-07-08T08:18:57;5.82;;;2.40;;
70929;SDS011;58588;48.102;19.682;2023-07-08T08:21:59;6.70;;;2.30;;
70929;SDS011;58588;48.102;19.682;2023-07-08T08:25:01;7.25;;;2.80;;
70929;SDS011;58588;48.102;19.682;2023-07-08T08:28:04;6.05;;;2.58;;
70929;SDS011;58588;48.102;19.682;2023-07-08T08:31:07;7.87;;;2.20;;
70929;SDS011;58588;48.102;19.682;2023-07-08T08:34:09;6.07;;;2.50;;
70929;SDS011;58588;48.102;19.682;2023-07-08T08:37:11;6.05;;;2.38;;
70929;SDS011;58588;48.102;19.682;2023-07-08T08:40:15;8.00;;;2.50;;
70929;SDS011;58588;48.102;19.682;2023-07-08T08:43:19;6.60;;;2.40;;
70929;SDS011;58588;48.102;19.682;2023-07-08T08:46:27;5.63;;;2.50;;
70929;SDS011;58588;48.102;19.682;2023-07-08T08:49:36;7.68;;;2.30;;
70929;SDS011;58588;48.102;19.682;2023-07-08T08:52:42;8.00;;;2.50;;
70929;SDS011;58588;48.102;19.682;2023-07-08T08:55:45;6.18;;;2.33;;
70929;SDS011;58588;48.102;19.682;2023-07-08T08:58:52;5.40;;;2.08;;
70929;SDS011;58588;48.102;19.682;2023-07-08T09:02:04;7.00;;;2.50;;
70929;SDS011;58588;48.102;19.682;2023-07-08T09:05:30;5.50;;;2.38;;
70929;SDS011;58588;48.102;19.682;2023-07-08T09:08:33;6.05;;;2.28;;
70929;SDS011;58588;48.102;19.682;2023-07-08T09:11:41;8.63;;;2.45;;
70929;SDS011;58588;48.102;19.682;2023-07-08T09:14:47;7.35;;;2.50;;
70929;SDS011;58588;48.102;19.682;2023-07-08T09:17:51;8.03;;;2.27;;
70929;SDS011;58588;48.102;19.682;2023-07-08T09:20:58;7.47;;;2.30;;
70929;SDS011;58588;48.102;19.682;2023-07-08T09:24:08;5.82;;;2.20;;
70929;SDS011;58588;48.102;19.682;2023-07-08T09:27:18;6.38;;;2.50;;
70929;SDS011;58588;48.102;19.682;2023-07-08T09:30:21;7.75;;;2.35;;
70929;SDS011;58588;48.102;19.682;2023-07-08T09:33:26;5.73;;;2.30;;
70929;SDS011;58588;48.102;19.682;2023-07-08T09:40:28;6.35;;;2.40;;
70929;SDS011;58588;48.102;19.682;2023-07-08T09:43:33;7.43;;;2.13;;
70929;SDS011;58588;48.102;19.682;2023-07-08T09:46:38;7.35;;;2.45;;
70929;SDS011;58588;48.102;19.682;2023-07-08T09:49:42;6.70;;;2.00;;
70929;SDS011;58588;48.102;19.682;2023-07-08T09:52:46;5.60;;;2.33;;
70929;SDS011;58588;48.102;19.682;2023-07-08T09:55:49;6.45;;;2.15;;
70929;SDS011;58588;48.102;19.682;2023-07-08T09:58:52;8.23;;;2.25;;
70929;SDS011;58588;48.102;19.682;2023-07-08T10:01:55;5.88;;;2.20;;
70929;SDS011;58588;48.102;19.682;2023-07-08T10:04:59;9.73;;;2.27;;
70929;SDS011;58588;48.102;19.682;2023-07-08T10:08:08;5.53;;;2.08;;
70929;SDS011;58588;48.102;19.682;2023-07-08T10:11:22;7.47;;;2.17;;
70929;SDS011;58588;48.102;19.682;2023-07-08T10:14:29;5.88;;;2.22;;
70929;SDS011;58588;48.102;19.682;2023-07-08T10:17:35;9.60;;;2.20;;
70929;SDS011;58588;48.102;19.682;2023-07-08T10:20:45;6.73;;;2.33;;
70929;SDS011;58588;48.102;19.682;2023-07-08T10:23:54;6.40;;;2.33;;
70929;SDS011;58588;48.102;19.682;2023-07-08T10:27:07;9.98;;;2.72;;
70929;SDS011;58588;48.102;19.682;2023-07-08T10:30:21;11.75;;;2.45;;
70929;SDS011;58588;48.102;19.682;2023-07-08T10:33:37;7.15;;;2.10;;
70929;SDS011;58588;48.102;19.682;2023-07-08T10:36:53;7.10;;;2.03;;
70929;SDS011;58588;48.102;19.682;2023-07-08T10:40:07;6.93;;;2.25;;
70929;SDS011;58588;48.102;19.682;2023-07-08T10:43:24;6.07;;;2.00;;
70929;SDS011;58588;48.102;19.682;2023-07-08T10:46:45;6.43;;;2.22;;
70929;SDS011;58588;48.102;19.682;2023-07-08T10:49:59;6.90;;;2.70;;
70929;SDS011;58588;48.102;19.682;2023-07-08T10:56:45;5.95;;;2.30;;
70929;SDS011;58588;48.102;19.682;2023-07-08T10:59:54;5.50;;;2.00;;
70929;SDS011;58588;48.102;19.682;2023-07-08T11:06:55;8.15;;;2.05;;
70929;SDS011;58588;48.102;19.682;2023-07-08T11:10:05;7.40;;;2.30;;
70929;SDS011;58588;48.102;19.682;2023-07-08T11:13:12;7.00;;;2.05;;
70929;SDS011;58588;48.102;19.682;2023-07-08T11:16:20;7.38;;;4.35;;
70929;SDS011;58588;48.102;19.682;2023-07-08T11:19:38;7.57;;;2.63;;
70929;SDS011;58588;48.102;19.682;2023-07-08T11:22:46;8.10;;;2.20;;
70929;SDS011;58588;48.102;19.682;2023-07-08T11:25:53;7.70;;;1.90;;
70929;SDS011;58588;48.102;19.682;2023-07-08T11:29:05;6.60;;;2.05;;
70929;SDS011;58588;48.102;19.682;2023-07-08T11:32:20;8.75;;;2.00;;
70929;SDS011;58588;48.102;19.682;2023-07-08T11:35:27;7.10;;;2.22;;
70929;SDS011;58588;48.102;19.682;2023-07-08T11:38:36;6.47;;;2.00;;
70929;SDS011;58588;48.102;19.682;2023-07-08T11:41:41;5.23;;;1.87;;
70929;SDS011;58588;48.102;19.682;2023-07-08T11:44:43;5.63;;;2.15;;
70929;SDS011;58588;48.102;19.682;2023-07-08T11:47:50;5.65;;;2.30;;
70929;SDS011;58588;48.102;19.682;2023-07-08T11:50:52;6.18;;;1.98;;
70929;SDS011;58588;48.102;19.682;2023-07-08T11:53:58;5.47;;;1.90;;
70929;SDS011;58588;48.102;19.682;2023-07-08T11:57:05;5.80;;;1.80;;
70929;SDS011;58588;48.102;19.682;2023-07-08T12:00:13;8.30;;;2.20;;
70929;SDS011;58588;48.102;19.682;2023-07-08T12:03:19;5.50;;;1.83;;
70929;SDS011;58588;48.102;19.682;2023-07-08T12:09:45;6.57;;;2.10;;
70929;SDS011;58588;48.102;19.682;2023-07-08T12:12:51;5.30;;;1.73;;
70929;SDS011;58588;48.102;19.682;2023-07-08T12:15:53;6.57;;;2.13;;
70929;SDS011;58588;48.102;19.682;2023-07-08T12:18:55;5.32;;;2.00;;
70929;SDS011;58588;48.102;19.682;2023-07-08T12:22:00;5.43;;;2.00;;
70929;SDS011;58588;48.102;19.682;2023-07-08T12:25:04;4.88;;;1.85;;
70929;SDS011;58588;48.102;19.682;2023-07-08T12:28:15;4.93;;;1.80;;
70929;SDS011;58588;48.102;19.682;2023-07-08T12:31:18;5.50;;;2.10;;
70929;SDS011;58588;48.102;19.682;2023-07-08T12:34:21;4.75;;;1.80;;
70929;SDS011;58588;48.102;19.682;2023-07-08T12:37:26;5.93;;;1.90;;
70929;SDS011;58588;48.102;19.682;2023-07-08T12:40:29;6.10;;;1.88;;
70929;SDS011;58588;48.102;19.682;2023-07-08T12:43:33;5.60;;;1.90;;
70929;SDS011;58588;48.102;19.682;2023-07-08T12:46:35;5.28;;;2.10;;
70929;SDS011;58588;48.102;19.682;2023-07-08T12:49:38;5.53;;;2.03;;
70929;SDS011;58588;48.102;19.682;2023-07-08T12:52:40;5.82;;;2.00;;
70929;SDS011;58588;48.102;19.682;2023-07-08T12:55:44;5.40;;;2.10;;
70929;SDS011;58588;48.102;19.682;2023-07-08T12:58:48;5.87;;;1.73;;
70929;SDS011;58588;48.102;19.682;2023-07-08T13:01:52;6.18;;;2.10;;
70929;SDS011;58588;48.102;19.682;2023-07-08T13:04:55;4.82;;;2.00;;
70929;SDS011;58588;48.102;19.682;2023-07-08T13:08:00;5.15;;;1.80;;
70929;SDS011;58588;48.102;19.682;2023-07-08T13:11:03;5.00;;;1.90;;
70929;SDS011;58588;48.102;19.682;2023-07-08T13:14:08;5.00;;;1.90;;
70929;SDS011;58588;48.102;19.682;2023-07-08T13:17:12;6.40;;;2.20;;
70929;SDS011;58588;48.102;19.682;2023-07-08T13:20:15;5.70;;;1.92;;
70929;SDS011;58588;48.102;19.682;2023-07-08T13:23:19;5.93;;;1.85;;
70929;SDS011;58588;48.102;19.682;2023-07-08T13:26:23;5.38;;;2.30;;
70929;SDS011;58588;48.102;19.682;2023-07-08T13:29:33;6.80;;;1.93;;
70929;SDS011;58588;48.102;19.682;2023-07-08T13:32:37;7.50;;;1.95;;
70929;SDS011;58588;48.102;19.682;2023-07-08T13:35:39;5.30;;;1.63;;
70929;SDS011;58588;48.102;19.682;2023-07-08T13:38:42;6.25;;;1.88;;
70929;SDS011;58588;48.102;19.682;2023-07-08T13:41:45;5.97;;;2.10;;
70929;SDS011;58588;48.102;19.682;2023-07-08T13:44:49;4.77;;;2.00;;
70929;SDS011;58588;48.102;19.682;2023-07-08T13:47:58;5.85;;;1.88;;
70929;SDS011;58588;48.102;19.682;2023-07-08T13:51:02;6.65;;;2.00;;
70929;SDS011;58588;48.102;19.682;2023-07-08T13:54:13;5.47;;;1.90;;
70929;SDS011;58588;48.102;19.682;2023-07-08T13:57:17;6.32;;;1.90;;
70929;SDS011;58588;48.102;19.682;2023-07-08T14:00:24;5.87;;;1.77;;
70929;SDS011;58588;48.102;19.682;2023-07-08T14:03:26;5.20;;;1.98;;
70929;SDS011;58588;48.102;19.682;2023-07-08T14:06:29;5.80;;;1.95;;
70929;SDS011;58588;48.102;19.682;2023-07-08T14:09:34;4.85;;;1.77;;
70929;SDS011;58588;48.102;19.682;2023-07-08T14:12:36;4.95;;;1.80;;
70929;SDS011;58588;48.102;19.682;2023-07-08T14:15:40;5.30;;;1.87;;
70929;SDS011;58588;48.102;19.682;2023-07-08T14:18:42;11.52;;;6.30;;
70929;SDS011;58588;48.102;19.682;2023-07-08T14:21:45;5.70;;;2.40;;
70929;SDS011;58588;48.102;19.682;2023-07-08T14:24:47;4.80;;;1.80;;
70929;SDS011;58588;48.102;19.682;2023-07-08T14:27:49;6.10;;;1.73;;
70929;SDS011;58588;48.102;19.682;2023-07-08T14:30:53;6.63;;;2.03;;
70929;SDS011;58588;48.102;19.682;2023-07-08T14:33:57;5.53;;;2.08;;
70929;SDS011;58588;48.102;19.682;2023-07-08T14:37:04;6.80;;;1.88;;
70929;SDS011;58588;48.102;19.682;2023-07-08T14:40:19;5.85;;;2.15;;
70929;SDS011;58588;48.102;19.682;2023-07-08T14:43:24;6.65;;;2.10;;
70929;SDS011;58588;48.102;19.682;2023-07-08T14:46:31;6.40;;;1.93;;
70929;SDS011;58588;48.102;19.682;2023-07-08T14:49:33;6.78;;;2.00;;
70929;SDS011;58588;48.102;19.682;2023-07-08T14:52:35;5.75;;;2.10;;
70929;SDS011;58588;48.102;19.682;2023-07-08T14:55:37;5.00;;;1.92;;
70929;SDS011;58588;48.102;19.682;2023-07-08T14:58:39;7.85;;;2.00;;
70929;SDS011;58588;48.102;19.682;2023-07-08T15:01:46;5.13;;;1.83;;
70929;SDS011;58588;48.102;19.682;2023-07-08T15:04:48;5.47;;;2.00;;
70929;SDS011;58588;48.102;19.682;2023-07-08T15:07:54;6.63;;;1.90;;
70929;SDS011;58588;48.102;19.682;2023-07-08T15:10:58;5.40;;;1.90;;
70929;SDS011;58588;48.102;19.682;2023-07-08T15:14:02;6.35;;;2.20;;
70929;SDS011;58588;48.102;19.682;2023-07-08T15:17:09;5.60;;;2.03;;
70929;SDS011;58588;48.102;19.682;2023-07-08T15:20:16;5.43;;;2.03;;
70929;SDS011;58588;48.102;19.682;2023-07-08T15:23:19;4.90;;;2.00;;
70929;SDS011;58588;48.102;19.682;2023-07-08T15:26:21;5.45;;;1.90;;
70929;SDS011;58588;48.102;19.682;2023-07-08T15:29:23;5.22;;;1.73;;
70929;SDS011;58588;48.102;19.682;2023-07-08T15:32:28;5.83;;;2.10;;
70929;SDS011;58588;48.102;19.682;2023-07-08T15:35:30;5.10;;;1.90;;
70929;SDS011;58588;48.102;19.682;2023-07-08T15:38:33;5.28;;;2.10;;
70929;SDS011;58588;48.102;19.682;2023-07-08T15:41:36;5.05;;;2.10;;
70929;SDS011;58588;48.102;19.682;2023-07-08T15:44:39;6.43;;;2.20;;
70929;SDS011;58588;48.102;19.682;2023-07-08T15:47:42;5.23;;;2.10;;
70929;SDS011;58588;48.102;19.682;2023-07-08T15:50:44;4.82;;;2.00;;
70929;SDS011;58588;48.102;19.682;2023-07-08T15:53:46;4.85;;;1.75;;
70929;SDS011;58588;48.102;19.682;2023-07-08T15:56:49;5.25;;;2.17;;
70929;SDS011;58588;48.102;19.682;2023-07-08T15:59:53;6.15;;;2.05;;
70929;SDS011;58588;48.102;19.682;2023-07-08T16:02:58;4.80;;;1.90;;
70929;SDS011;58588;48.102;19.682;2023-07-08T16:06:02;5.72;;;2.10;;
70929;SDS011;58588;48.102;19.682;2023-07-08T16:09:04;5.78;;;1.98;;
70929;SDS011;58588;48.102;19.682;2023-07-08T16:12:07;6.65;;;2.25;;
70929;SDS011;58588;48.102;19.682;2023-07-08T16:15:13;5.93;;;1.92;;
70929;SDS011;58588;48.102;19.682;2023-07-08T16:18:18;5.47;;;2.23;;
70929;SDS011;58588;48.102;19.682;2023-07-08T16:21:20;6.00;;;2.38;;
70929;SDS011;58588;48.102;19.682;2023-07-08T16:24:22;4.95;;;2.08;;
70929;SDS011;58588;48.102;19.682;2023-07-08T16:27:24;5.20;;;2.15;;
70929;SDS011;58588;48.102;19.682;2023-07-08T16:30:27;5.22;;;2.03;;
70929;SDS011;58588;48.102;19.682;2023-07-08T16:33:31;5.23;;;2.00;;
70929;SDS011;58588;48.102;19.682;2023-07-08T16:36:33;5.43;;;1.80;;
70929;SDS011;58588;48.102;19.682;2023-07-08T16:39:35;5.00;;;2.00;;
70929;SDS011;58588;48.102;19.682;2023-07-08T16:42:37;6.18;;;2.15;;
70929;SDS011;58588;48.102;19.682;2023-07-08T16:45:39;5.85;;;2.10;;
70929;SDS011;58588;48.102;19.682;2023-07-08T16:48:43;5.80;;;1.80;;
70929;SDS011;58588;48.102;19.682;2023-07-08T16:51:45;5.25;;;1.90;;
70929;SDS011;58588;48.102;19.682;2023-07-08T16:54:47;5.03;;;2.17;;
70929;SDS011;58588;48.102;19.682;2023-07-08T16:57:49;5.15;;;1.90;;
70929;SDS011;58588;48.102;19.682;2023-07-08T17:00:51;6.75;;;1.98;;
70929;SDS011;58588;48.102;19.682;2023-07-08T17:03:55;5.53;;;1.80;;
70929;SDS011;58588;48.102;19.682;2023-07-08T17:06:58;5.25;;;2.10;;
70929;SDS011;58588;48.102;19.682;2023-07-08T17:10:00;5.88;;;2.10;;
70929;SDS011;58588;48.102;19.682;2023-07-08T17:13:03;7.00;;;1.80;;
70929;SDS011;58588;48.102;19.682;2023-07-08T17:16:05;6.57;;;1.80;;
70929;SDS011;58588;48.102;19.682;2023-07-08T17:19:11;4.93;;;1.90;;
70929;SDS011;58588;48.102;19.682;2023-07-08T17:22:13;7.10;;;1.90;;
70929;SDS011;58588;48.102;19.682;2023-07-08T17:25:15;9.30;;;1.98;;
70929;SDS011;58588;48.102;19.682;2023-07-08T17:28:19;5.97;;;1.80;;
70929;SDS011;58588;48.102;19.682;2023-07-08T17:31:22;6.15;;;2.10;;
70929;SDS011;58588;48.102;19.682;2023-07-08T17:34:26;6.13;;;2.03;;
70929;SDS011;58588;48.102;19.682;2023-07-08T17:37:29;8.52;;;2.10;;
70929;SDS011;58588;48.102;19.682;2023-07-08T17:40:31;5.90;;;2.17;;
70929;SDS011;58588;48.102;19.682;2023-07-08T17:43:33;7.72;;;2.80;;
70929;SDS011;58588;48.102;19.682;2023-07-08T17:46:36;9.32;;;2.42;;
70929;SDS011;58588;48.102;19.682;2023-07-08T17:49:40;7.53;;;2.43;;
70929;SDS011;58588;48.102;19.682;2023-07-08T17:52:42;6.93;;;2.38;;
70929;SDS011;58588;48.102;19.682;2023-07-08T17:55:44;6.00;;;2.53;;
70929;SDS011;58588;48.102;19.682;2023-07-08T17:58:51;6.07;;;2.35;;
70929;SDS011;58588;48.102;19.682;2023-07-08T18:01:55;6.47;;;2.60;;
70929;SDS011;58588;48.102;19.682;2023-07-08T18:04:58;6.50;;;2.40;;
70929;SDS011;58588;48.102;19.682;2023-07-08T18:08:00;8.48;;;2.58;;
70929;SDS011;58588;48.102;19.682;2023-07-08T18:11:02;6.75;;;2.78;;
70929;SDS011;58588;48.102;19.682;2023-07-08T18:14:05;5.72;;;2.65;;
70929;SDS011;58588;48.102;19.682;2023-07-08T18:17:07;6.60;;;2.67;;
70929;SDS011;58588;48.102;19.682;2023-07-08T18:20:12;8.17;;;2.73;;
70929;SDS011;58588;48.102;19.682;2023-07-08T18:23:16;6.10;;;2.60;;
70929;SDS011;58588;48.102;19.682;2023-07-08T18:26:20;5.93;;;2.75;;